sensor_id;sensor_type;location;lat;lon;timestamp;temperature;humidity
66962;HTU21D;53897;51.126;5.868;2023-02-27T00:01:32;21.76;37.66
66962;HTU21D;53897;51.126;5.868;2023-02-27T00:03:59;21.75;37.62
66962;HTU21D;53897;51.126;5.868;2023-02-27T00:06:25;21.70;37.62
66962;HTU21D;53897;51.126;5.868;2023-02-27T00:08:51;21.70;37.58
66962;HTU21D;53897;51.126;5.868;2023-02-27T00:11:17;21.69;37.56
66962;HTU21D;53897;51.126;5.868;2023-02-27T00:13:43;21.67;37.51
66962;HTU21D;53897;51.126;5.868;2023-02-27T00:16:08;21.65;37.49
66962;HTU21D;53897;51.126;5.868;2023-02-27T00:18:34;21.65;37.46
66962;HTU21D;53897;51.126;5.868;2023-02-27T00:21:00;21.63;37.44
66962;HTU21D;53897;51.126;5.868;2023-02-27T00:23:25;21.61;37.40
66962;HTU21D;53897;51.126;5.868;2023-02-27T00:25:52;21.59;37.39
66962;HTU21D;53897;51.126;5.868;2023-02-27T00:28:19;21.57;37.37
66962;HTU21D;53897;51.126;5.868;2023-02-27T00:30:45;21.54;37.34
66962;HTU21D;53897;51.126;5.868;2023-02-27T00:33:10;21.52;37.33
66962;HTU21D;53897;51.126;5.868;2023-02-27T00:35:36;21.51;37.31
66962;HTU21D;53897;51.126;5.868;2023-02-27T00:38:02;21.50;37.27
66962;HTU21D;53897;51.126;5.868;2023-02-27T00:40:29;21.48;37.24
66962;HTU21D;53897;51.126;5.868;2023-02-27T00:42:54;21.46;37.24
66962;HTU21D;53897;51.126;5.868;2023-02-27T00:45:20;21.44;37.21
66962;HTU21D;53897;51.126;5.868;2023-02-27T00:47:47;21.43;37.18
66962;HTU21D;53897;51.126;5.868;2023-02-27T00:50:14;21.39;37.17
66962;HTU21D;53897;51.126;5.868;2023-02-27T00:52:40;21.39;37.14
66962;HTU21D;53897;51.126;5.868;2023-02-27T00:55:07;21.37;37.09
66962;HTU21D;53897;51.126;5.868;2023-02-27T00:57:33;21.35;37.05
66962;HTU21D;53897;51.126;5.868;2023-02-27T00:59:59;21.33;37.04
66962;HTU21D;53897;51.126;5.868;2023-02-27T01:02:25;21.31;37.03
66962;HTU21D;53897;51.126;5.868;2023-02-27T01:04:51;21.30;36.98
66962;HTU21D;53897;51.126;5.868;2023-02-27T01:07:17;21.28;36.98
66962;HTU21D;53897;51.126;5.868;2023-02-27T01:09:42;21.24;36.98
66962;HTU21D;53897;51.126;5.868;2023-02-27T01:12:09;21.24;36.98
66962;HTU21D;53897;51.126;5.868;2023-02-27T01:14:35;21.22;36.95
66962;HTU21D;53897;51.126;5.868;2023-02-27T01:17:01;21.20;36.93
66962;HTU21D;53897;51.126;5.868;2023-02-27T01:19:27;21.19;36.92
66962;HTU21D;53897;51.126;5.868;2023-02-27T01:21:53;21.19;36.94
66962;HTU21D;53897;51.126;5.868;2023-02-27T01:24:19;21.15;36.89
66962;HTU21D;53897;51.126;5.868;2023-02-27T01:26:47;21.15;36.87
66962;HTU21D;53897;51.126;5.868;2023-02-27T01:29:13;21.13;36.87
66962;HTU21D;53897;51.126;5.868;2023-02-27T01:31:40;21.11;36.85
66962;HTU21D;53897;51.126;5.868;2023-02-27T01:34:05;21.08;36.84
66962;HTU21D;53897;51.126;5.868;2023-02-27T01:36:31;21.08;36.81
66962;HTU21D;53897;51.126;5.868;2023-02-27T01:38:57;21.07;36.78
66962;HTU21D;53897;51.126;5.868;2023-02-27T01:41:22;21.06;36.74
66962;HTU21D;53897;51.126;5.868;2023-02-27T01:44:04;21.03;36.75
66962;HTU21D;53897;51.126;5.868;2023-02-27T01:46:31;21.02;36.72
66962;HTU21D;53897;51.126;5.868;2023-02-27T01:49:08;21.00;36.72
66962;HTU21D;53897;51.126;5.868;2023-02-27T01:51:41;20.99;36.70
66962;HTU21D;53897;51.126;5.868;2023-02-27T01:54:10;20.99;36.69
66962;HTU21D;53897;51.126;5.868;2023-02-27T01:56:37;20.96;36.67
66962;HTU21D;53897;51.126;5.868;2023-02-27T01:59:06;20.94;36.63
66962;HTU21D;53897;51.126;5.868;2023-02-27T02:01:34;20.93;36.61
66962;HTU21D;53897;51.126;5.868;2023-02-27T02:04:24;20.92;36.56
66962;HTU21D;53897;51.126;5.868;2023-02-27T02:06:57;20.91;36.56
66962;HTU21D;53897;51.126;5.868;2023-02-27T02:09:25;20.89;36.56
66962;HTU21D;53897;51.126;5.868;2023-02-27T02:11:53;20.88;36.56
66962;HTU21D;53897;51.126;5.868;2023-02-27T02:14:19;20.87;36.55
66962;HTU21D;53897;51.126;5.868;2023-02-27T02:16:54;20.85;36.53
66962;HTU21D;53897;51.126;5.868;2023-02-27T02:31:30;20.75;36.47
66962;HTU21D;53897;51.126;5.868;2023-02-27T02:34:44;20.74;36.47
66962;HTU21D;53897;51.126;5.868;2023-02-27T02:46:08;20.65;36.42
66962;HTU21D;53897;51.126;5.868;2023-02-27T02:48:47;20.65;36.38
66962;HTU21D;53897;51.126;5.868;2023-02-27T02:51:59;20.64;36.35
66962;HTU21D;53897;51.126;5.868;2023-02-27T02:55:07;20.62;36.36
66962;HTU21D;53897;51.126;5.868;2023-02-27T02:58:07;20.60;36.35
66962;HTU21D;53897;51.126;5.868;2023-02-27T03:00:42;20.58;36.35
66962;HTU21D;53897;51.126;5.868;2023-02-27T03:03:35;20.59;36.30
66962;HTU21D;53897;51.126;5.868;2023-02-27T03:06:09;20.56;36.36
66962;HTU21D;53897;51.126;5.868;2023-02-27T03:08:45;20.55;36.38
66962;HTU21D;53897;51.126;5.868;2023-02-27T03:11:13;20.53;36.40
66962;HTU21D;53897;51.126;5.868;2023-02-27T03:13:48;20.54;36.37
66962;HTU21D;53897;51.126;5.868;2023-02-27T03:16:33;20.51;36.33
66962;HTU21D;53897;51.126;5.868;2023-02-27T03:19:12;20.49;36.31
66962;HTU21D;53897;51.126;5.868;2023-02-27T03:24:32;20.47;36.29
66962;HTU21D;53897;51.126;5.868;2023-02-27T03:27:01;20.46;36.26
66962;HTU21D;53897;51.126;5.868;2023-02-27T03:32:27;20.44;36.24
66962;HTU21D;53897;51.126;5.868;2023-02-27T03:34:54;20.43;36.24
66962;HTU21D;53897;51.126;5.868;2023-02-27T03:37:29;20.41;36.24
66962;HTU21D;53897;51.126;5.868;2023-02-27T03:42:45;20.37;36.21
66962;HTU21D;53897;51.126;5.868;2023-02-27T03:48:23;20.36;36.14
66962;HTU21D;53897;51.126;5.868;2023-02-27T03:50:49;20.34;36.13
66962;HTU21D;53897;51.126;5.868;2023-02-27T03:53:32;20.34;36.13
66962;HTU21D;53897;51.126;5.868;2023-02-27T03:56:03;20.31;36.10
66962;HTU21D;53897;51.126;5.868;2023-02-27T03:58:31;20.30;36.11
66962;HTU21D;53897;51.126;5.868;2023-02-27T04:00:57;20.28;36.10
66962;HTU21D;53897;51.126;5.868;2023-02-27T04:03:22;20.27;36.08
66962;HTU21D;53897;51.126;5.868;2023-02-27T04:05:48;20.25;36.08
66962;HTU21D;53897;51.126;5.868;2023-02-27T04:08:50;20.24;36.05
66962;HTU21D;53897;51.126;5.868;2023-02-27T04:17:26;20.19;35.96
66962;HTU21D;53897;51.126;5.868;2023-02-27T04:20:16;20.18;35.98
66962;HTU21D;53897;51.126;5.868;2023-02-27T04:39:07;20.07;35.88
66962;HTU21D;53897;51.126;5.868;2023-02-27T04:41:41;20.07;35.89
66962;HTU21D;53897;51.126;5.868;2023-02-27T04:44:11;20.06;35.89
66962;HTU21D;53897;51.126;5.868;2023-02-27T04:46:41;20.05;35.68
66962;HTU21D;53897;51.126;5.868;2023-02-27T04:49:23;20.02;35.72
66962;HTU21D;53897;51.126;5.868;2023-02-27T04:51:56;20.03;35.79
66962;HTU21D;53897;51.126;5.868;2023-02-27T04:54:34;20.00;35.80
66962;HTU21D;53897;51.126;5.868;2023-02-27T04:57:07;20.01;35.73
66962;HTU21D;53897;51.126;5.868;2023-02-27T04:59:40;20.00;35.76
66962;HTU21D;53897;51.126;5.868;2023-02-27T05:02:29;19.98;35.78
66962;HTU21D;53897;51.126;5.868;2023-02-27T05:05:02;19.96;35.72
66962;HTU21D;53897;51.126;5.868;2023-02-27T05:07:35;19.96;35.75
66962;HTU21D;53897;51.126;5.868;2023-02-27T05:10:13;19.94;35.73
66962;HTU21D;53897;51.126;5.868;2023-02-27T05:12:50;19.92;35.76
66962;HTU21D;53897;51.126;5.868;2023-02-27T05:18:10;19.89;35.64
66962;HTU21D;53897;51.126;5.868;2023-02-27T05:29:35;19.84;35.63
66962;HTU21D;53897;51.126;5.868;2023-02-27T05:32:32;19.83;35.66
66962;HTU21D;53897;51.126;5.868;2023-02-27T05:37:50;19.80;35.66
66962;HTU21D;53897;51.126;5.868;2023-02-27T05:40:27;19.79;35.63
66962;HTU21D;53897;51.126;5.868;2023-02-27T05:43:09;19.76;35.57
66962;HTU21D;53897;51.126;5.868;2023-02-27T05:45:39;19.75;35.60
66962;HTU21D;53897;51.126;5.868;2023-02-27T05:48:11;19.75;35.52
66962;HTU21D;53897;51.126;5.868;2023-02-27T05:50:41;19.76;35.40
66962;HTU21D;53897;51.126;5.868;2023-02-27T05:53:12;19.79;35.51
66962;HTU21D;53897;51.126;5.868;2023-02-27T05:55:50;19.82;35.59
66962;HTU21D;53897;51.126;5.868;2023-02-27T05:58:39;19.87;35.67
66962;HTU21D;53897;51.126;5.868;2023-02-27T06:01:08;19.91;35.64
66962;HTU21D;53897;51.126;5.868;2023-02-27T06:03:37;19.99;35.76
66962;HTU21D;53897;51.126;5.868;2023-02-27T06:06:06;20.04;35.78
66962;HTU21D;53897;51.126;5.868;2023-02-27T06:08:33;20.11;35.94
66962;HTU21D;53897;51.126;5.868;2023-02-27T06:10:59;20.16;36.00
66962;HTU21D;53897;51.126;5.868;2023-02-27T06:13:25;20.25;36.13
66962;HTU21D;53897;51.126;5.868;2023-02-27T06:15:51;20.32;36.34
66962;HTU21D;53897;51.126;5.868;2023-02-27T06:18:18;20.40;36.43
66962;HTU21D;53897;51.126;5.868;2023-02-27T06:20:45;20.46;36.47
66962;HTU21D;53897;51.126;5.868;2023-02-27T06:23:11;20.51;36.41
66962;HTU21D;53897;51.126;5.868;2023-02-27T06:25:37;20.59;36.43
66962;HTU21D;53897;51.126;5.868;2023-02-27T06:28:03;20.65;36.47
66962;HTU21D;53897;51.126;5.868;2023-02-27T06:30:29;20.72;36.40
66962;HTU21D;53897;51.126;5.868;2023-02-27T06:32:55;20.76;36.42
66962;HTU21D;53897;51.126;5.868;2023-02-27T06:35:21;20.81;36.42
66962;HTU21D;53897;51.126;5.868;2023-02-27T06:37:47;20.87;36.42
66962;HTU21D;53897;51.126;5.868;2023-02-27T06:40:13;20.91;36.41
66962;HTU21D;53897;51.126;5.868;2023-02-27T06:42:40;20.96;36.40
66962;HTU21D;53897;51.126;5.868;2023-02-27T06:45:07;21.01;36.37
66962;HTU21D;53897;51.126;5.868;2023-02-27T06:47:33;21.05;36.30
66962;HTU21D;53897;51.126;5.868;2023-02-27T06:49:59;21.09;36.24
66962;HTU21D;53897;51.126;5.868;2023-02-27T06:52:25;21.13;36.21
66962;HTU21D;53897;51.126;5.868;2023-02-27T06:54:51;21.15;36.18
66962;HTU21D;53897;51.126;5.868;2023-02-27T06:57:17;21.17;36.15
66962;HTU21D;53897;51.126;5.868;2023-02-27T06:59:43;21.19;36.14
66962;HTU21D;53897;51.126;5.868;2023-02-27T07:02:13;21.22;36.12
66962;HTU21D;53897;51.126;5.868;2023-02-27T07:04:40;21.24;36.06
66962;HTU21D;53897;51.126;5.868;2023-02-27T07:07:05;21.28;36.05
66962;HTU21D;53897;51.126;5.868;2023-02-27T07:09:31;21.29;36.04
66962;HTU21D;53897;51.126;5.868;2023-02-27T07:11:57;21.29;35.97
66962;HTU21D;53897;51.126;5.868;2023-02-27T07:14:22;21.29;35.95
66962;HTU21D;53897;51.126;5.868;2023-02-27T07:16:50;21.27;35.89
66962;HTU21D;53897;51.126;5.868;2023-02-27T07:19:23;21.25;35.92
66962;HTU21D;53897;51.126;5.868;2023-02-27T07:21:49;21.28;35.95
66962;HTU21D;53897;51.126;5.868;2023-02-27T07:24:15;21.24;35.87
66962;HTU21D;53897;51.126;5.868;2023-02-27T07:26:41;21.23;35.65
66962;HTU21D;53897;51.126;5.868;2023-02-27T07:29:07;21.23;35.33
66962;HTU21D;53897;51.126;5.868;2023-02-27T07:31:33;21.24;35.37
66962;HTU21D;53897;51.126;5.868;2023-02-27T07:33:58;21.25;34.97
66962;HTU21D;53897;51.126;5.868;2023-02-27T07:36:24;21.28;35.12
66962;HTU21D;53897;51.126;5.868;2023-02-27T07:38:50;21.31;35.35
66962;HTU21D;53897;51.126;5.868;2023-02-27T07:41:16;21.34;35.40
66962;HTU21D;53897;51.126;5.868;2023-02-27T07:43:42;21.38;35.44
66962;HTU21D;53897;51.126;5.868;2023-02-27T07:46:08;21.40;35.37
66962;HTU21D;53897;51.126;5.868;2023-02-27T07:48:34;21.47;35.31
66962;HTU21D;53897;51.126;5.868;2023-02-27T07:50:59;21.52;35.28
66962;HTU21D;53897;51.126;5.868;2023-02-27T07:53:25;21.57;35.27
66962;HTU21D;53897;51.126;5.868;2023-02-27T07:55:51;21.60;35.19
66962;HTU21D;53897;51.126;5.868;2023-02-27T07:58:17;21.65;35.08
66962;HTU21D;53897;51.126;5.868;2023-02-27T08:00:43;21.68;35.02
66962;HTU21D;53897;51.126;5.868;2023-02-27T08:03:09;21.74;35.19
66962;HTU21D;53897;51.126;5.868;2023-02-27T08:05:35;21.77;35.24
66962;HTU21D;53897;51.126;5.868;2023-02-27T08:08:02;21.82;35.31
66962;HTU21D;53897;51.126;5.868;2023-02-27T08:10:28;21.85;35.34
66962;HTU21D;53897;51.126;5.868;2023-02-27T08:12:53;21.90;35.37
66962;HTU21D;53897;51.126;5.868;2023-02-27T08:15:19;21.92;35.11
66962;HTU21D;53897;51.126;5.868;2023-02-27T08:17:45;21.95;34.83
66962;HTU21D;53897;51.126;5.868;2023-02-27T08:20:12;21.96;34.80
66962;HTU21D;53897;51.126;5.868;2023-02-27T08:22:39;21.99;34.77
66962;HTU21D;53897;51.126;5.868;2023-02-27T08:25:07;22.02;34.53
66962;HTU21D;53897;51.126;5.868;2023-02-27T08:27:36;22.03;34.46
66962;HTU21D;53897;51.126;5.868;2023-02-27T08:30:03;22.05;34.49
66962;HTU21D;53897;51.126;5.868;2023-02-27T08:32:29;22.07;34.44
66962;HTU21D;53897;51.126;5.868;2023-02-27T08:34:55;22.10;34.41
66962;HTU21D;53897;51.126;5.868;2023-02-27T08:37:20;22.12;34.37
66962;HTU21D;53897;51.126;5.868;2023-02-27T08:39:46;22.12;34.42
66962;HTU21D;53897;51.126;5.868;2023-02-27T08:42:12;22.13;34.53
66962;HTU21D;53897;51.126;5.868;2023-02-27T08:44:40;22.16;34.70
66962;HTU21D;53897;51.126;5.868;2023-02-27T08:47:05;22.17;34.56
66962;HTU21D;53897;51.126;5.868;2023-02-27T08:49:31;22.17;34.57
66962;HTU21D;53897;51.126;5.868;2023-02-27T08:51:57;22.13;34.74
66962;HTU21D;53897;51.126;5.868;2023-02-27T08:54:22;22.10;34.83
66962;HTU21D;53897;51.126;5.868;2023-02-27T08:56:48;22.11;34.85
66962;HTU21D;53897;51.126;5.868;2023-02-27T08:59:15;22.14;34.96
66962;HTU21D;53897;51.126;5.868;2023-02-27T09:01:40;22.17;34.89
66962;HTU21D;53897;51.126;5.868;2023-02-27T09:04:07;22.18;34.96
66962;HTU21D;53897;51.126;5.868;2023-02-27T09:06:35;22.17;34.88
66962;HTU21D;53897;51.126;5.868;2023-02-27T09:09:01;22.14;34.92
66962;HTU21D;53897;51.126;5.868;2023-02-27T09:11:27;22.13;35.07
66962;HTU21D;53897;51.126;5.868;2023-02-27T09:13:54;22.17;35.12
66962;HTU21D;53897;51.126;5.868;2023-02-27T09:16:21;22.19;35.18
66962;HTU21D;53897;51.126;5.868;2023-02-27T09:18:47;22.22;35.23
66962;HTU21D;53897;51.126;5.868;2023-02-27T09:21:14;22.25;35.21
66962;HTU21D;53897;51.126;5.868;2023-02-27T09:23:40;22.28;34.79
66962;HTU21D;53897;51.126;5.868;2023-02-27T09:26:06;22.26;34.54
66962;HTU21D;53897;51.126;5.868;2023-02-27T09:28:34;22.29;34.72
66962;HTU21D;53897;51.126;5.868;2023-02-27T09:31:01;22.29;34.71
66962;HTU21D;53897;51.126;5.868;2023-02-27T09:33:27;22.33;34.69
66962;HTU21D;53897;51.126;5.868;2023-02-27T09:35:53;22.35;34.64
66962;HTU21D;53897;51.126;5.868;2023-02-27T09:38:19;22.34;34.58
66962;HTU21D;53897;51.126;5.868;2023-02-27T09:40:49;22.36;34.55
66962;HTU21D;53897;51.126;5.868;2023-02-27T09:43:20;22.37;34.48
66962;HTU21D;53897;51.126;5.868;2023-02-27T09:45:52;22.39;34.44
66962;HTU21D;53897;51.126;5.868;2023-02-27T09:50:56;22.40;34.32
66962;HTU21D;53897;51.126;5.868;2023-02-27T09:53:33;22.40;34.25
66962;HTU21D;53897;51.126;5.868;2023-02-27T09:56:34;22.40;34.17
66962;HTU21D;53897;51.126;5.868;2023-02-27T09:59:28;22.40;34.11
66962;HTU21D;53897;51.126;5.868;2023-02-27T10:05:05;22.39;33.81
66962;HTU21D;53897;51.126;5.868;2023-02-27T10:10:28;22.40;33.92
66962;HTU21D;53897;51.126;5.868;2023-02-27T10:15:47;22.41;33.90
66962;HTU21D;53897;51.126;5.868;2023-02-27T10:24:38;22.42;33.90
66962;HTU21D;53897;51.126;5.868;2023-02-27T10:26:58;22.42;33.86
66962;HTU21D;53897;51.126;5.868;2023-02-27T10:32:02;22.41;33.80
66962;HTU21D;53897;51.126;5.868;2023-02-27T10:34:31;22.40;33.90
66962;HTU21D;53897;51.126;5.868;2023-02-27T10:37:03;22.42;33.88
66962;HTU21D;53897;51.126;5.868;2023-02-27T10:39:41;22.40;33.92
66962;HTU21D;53897;51.126;5.868;2023-02-27T10:42:12;22.38;34.05
66962;HTU21D;53897;51.126;5.868;2023-02-27T10:44:38;22.38;34.13
66962;HTU21D;53897;51.126;5.868;2023-02-27T10:47:04;22.38;34.11
66962;HTU21D;53897;51.126;5.868;2023-02-27T10:49:31;22.39;34.03
66962;HTU21D;53897;51.126;5.868;2023-02-27T10:52:16;22.39;34.02
66962;HTU21D;53897;51.126;5.868;2023-02-27T10:54:43;22.42;33.87
66962;HTU21D;53897;51.126;5.868;2023-02-27T10:57:26;22.42;33.63
66962;HTU21D;53897;51.126;5.868;2023-02-27T11:00:03;22.41;33.47
66962;HTU21D;53897;51.126;5.868;2023-02-27T11:02:37;22.42;33.23
66962;HTU21D;53897;51.126;5.868;2023-02-27T11:05:06;22.43;33.32
66962;HTU21D;53897;51.126;5.868;2023-02-27T11:07:41;22.42;33.41
66962;HTU21D;53897;51.126;5.868;2023-02-27T11:12:37;22.40;33.53
66962;HTU21D;53897;51.126;5.868;2023-02-27T11:15:28;22.43;33.89
66962;HTU21D;53897;51.126;5.868;2023-02-27T11:17:54;22.44;34.30
66962;HTU21D;53897;51.126;5.868;2023-02-27T11:23:24;22.49;35.44
66962;HTU21D;53897;51.126;5.868;2023-02-27T11:26:09;22.51;35.73
66962;HTU21D;53897;51.126;5.868;2023-02-27T11:28:35;22.53;35.94
66962;HTU21D;53897;51.126;5.868;2023-02-27T11:31:02;22.56;36.07
66962;HTU21D;53897;51.126;5.868;2023-02-27T11:33:34;22.58;35.95
66962;HTU21D;53897;51.126;5.868;2023-02-27T11:36:03;22.61;35.95
66962;HTU21D;53897;51.126;5.868;2023-02-27T11:38:31;22.62;36.15
66962;HTU21D;53897;51.126;5.868;2023-02-27T11:40:59;22.64;36.26
66962;HTU21D;53897;51.126;5.868;2023-02-27T11:43:32;22.65;36.32
66962;HTU21D;53897;51.126;5.868;2023-02-27T11:46:03;22.68;36.41
66962;HTU21D;53897;51.126;5.868;2023-02-27T11:48:45;22.69;36.46
66962;HTU21D;53897;51.126;5.868;2023-02-27T11:51:46;22.71;36.47
66962;HTU21D;53897;51.126;5.868;2023-02-27T11:54:17;22.73;36.26
66962;HTU21D;53897;51.126;5.868;2023-02-27T11:56:51;22.73;35.86
66962;HTU21D;53897;51.126;5.868;2023-02-27T11:59:43;22.75;35.52
66962;HTU21D;53897;51.126;5.868;2023-02-27T12:02:38;22.69;35.61
66962;HTU21D;53897;51.126;5.868;2023-02-27T12:07:45;22.66;35.91
66962;HTU21D;53897;51.126;5.868;2023-02-27T12:13:14;22.68;35.97
66962;HTU21D;53897;51.126;5.868;2023-02-27T12:18:43;22.67;36.19
66962;HTU21D;53897;51.126;5.868;2023-02-27T12:21:20;22.67;36.33
66962;HTU21D;53897;51.126;5.868;2023-02-27T12:24:07;22.69;36.40
66962;HTU21D;53897;51.126;5.868;2023-02-27T12:26:37;22.70;36.40
66962;HTU21D;53897;51.126;5.868;2023-02-27T12:32:22;22.72;35.90
66962;HTU21D;53897;51.126;5.868;2023-02-27T12:35:01;22.68;35.59
66962;HTU21D;53897;51.126;5.868;2023-02-27T12:37:32;22.63;35.60
66962;HTU21D;53897;51.126;5.868;2023-02-27T12:40:00;22.63;35.63
66962;HTU21D;53897;51.126;5.868;2023-02-27T12:42:45;22.61;35.62
66962;HTU21D;53897;51.126;5.868;2023-02-27T12:48:02;22.60;35.85
66962;HTU21D;53897;51.126;5.868;2023-02-27T13:02:55;22.53;36.39
66962;HTU21D;53897;51.126;5.868;2023-02-27T13:10:47;22.65;36.44
66962;HTU21D;53897;51.126;5.868;2023-02-27T13:13:37;22.66;36.57
66962;HTU21D;53897;51.126;5.868;2023-02-27T13:16:16;22.70;36.67
66962;HTU21D;53897;51.126;5.868;2023-02-27T13:18:51;22.73;36.72
66962;HTU21D;53897;51.126;5.868;2023-02-27T13:21:55;22.77;36.77
66962;HTU21D;53897;51.126;5.868;2023-02-27T13:27:14;22.80;36.82
66962;HTU21D;53897;51.126;5.868;2023-02-27T13:30:12;22.83;36.83
66962;HTU21D;53897;51.126;5.868;2023-02-27T13:36:06;22.90;36.88
66962;HTU21D;53897;51.126;5.868;2023-02-27T13:38:44;22.92;36.90
66962;HTU21D;53897;51.126;5.868;2023-02-27T13:43:49;22.96;36.94
66962;HTU21D;53897;51.126;5.868;2023-02-27T14:02:34;23.05;37.08
66962;HTU21D;53897;51.126;5.868;2023-02-27T14:05:05;23.06;37.13
66962;HTU21D;53897;51.126;5.868;2023-02-27T14:07:58;23.08;37.13
66962;HTU21D;53897;51.126;5.868;2023-02-27T14:10:29;23.09;36.59
66962;HTU21D;53897;51.126;5.868;2023-02-27T14:12:57;23.07;36.24
66962;HTU21D;53897;51.126;5.868;2023-02-27T14:17:50;23.09;36.19
66962;HTU21D;53897;51.126;5.868;2023-02-27T14:25:38;23.10;36.45
66962;HTU21D;53897;51.126;5.868;2023-02-27T14:28:28;23.09;36.53
66962;HTU21D;53897;51.126;5.868;2023-02-27T14:31:06;23.11;36.61
66962;HTU21D;53897;51.126;5.868;2023-02-27T14:33:47;23.10;36.70
66962;HTU21D;53897;51.126;5.868;2023-02-27T14:36:21;23.11;36.76
66962;HTU21D;53897;51.126;5.868;2023-02-27T14:38:49;23.11;36.82
66962;HTU21D;53897;51.126;5.868;2023-02-27T14:44:37;23.10;36.72
66962;HTU21D;53897;51.126;5.868;2023-02-27T14:47:03;23.05;36.85
66962;HTU21D;53897;51.126;5.868;2023-02-27T14:49:33;22.99;36.96
66962;HTU21D;53897;51.126;5.868;2023-02-27T14:52:24;22.97;37.03
66962;HTU21D;53897;51.126;5.868;2023-02-27T14:54:51;22.96;36.86
66962;HTU21D;53897;51.126;5.868;2023-02-27T14:57:21;22.95;36.82
66962;HTU21D;53897;51.126;5.868;2023-02-27T14:59:50;22.94;36.69
66962;HTU21D;53897;51.126;5.868;2023-02-27T15:02:28;22.97;36.76
66962;HTU21D;53897;51.126;5.868;2023-02-27T15:07:30;22.97;36.67
66962;HTU21D;53897;51.126;5.868;2023-02-27T15:09:59;22.97;36.61
66962;HTU21D;53897;51.126;5.868;2023-02-27T15:12:26;22.97;36.59
66962;HTU21D;53897;51.126;5.868;2023-02-27T15:14:58;22.98;36.53
66962;HTU21D;53897;51.126;5.868;2023-02-27T15:17:36;22.99;36.53
66962;HTU21D;53897;51.126;5.868;2023-02-27T15:22:46;22.99;36.45
66962;HTU21D;53897;51.126;5.868;2023-02-27T15:25:44;22.98;36.49
66962;HTU21D;53897;51.126;5.868;2023-02-27T15:28:23;22.98;36.30
66962;HTU21D;53897;51.126;5.868;2023-02-27T15:30:52;22.98;36.06
66962;HTU21D;53897;51.126;5.868;2023-02-27T15:33:27;22.99;36.05
66962;HTU21D;53897;51.126;5.868;2023-02-27T15:35:55;22.98;36.09
66962;HTU21D;53897;51.126;5.868;2023-02-27T15:38:34;22.98;36.08
66962;HTU21D;53897;51.126;5.868;2023-02-27T15:41:02;22.99;36.10
66962;HTU21D;53897;51.126;5.868;2023-02-27T15:43:30;22.99;36.11
66962;HTU21D;53897;51.126;5.868;2023-02-27T15:45:56;22.99;36.07
66962;HTU21D;53897;51.126;5.868;2023-02-27T15:48:23;22.99;35.85
66962;HTU21D;53897;51.126;5.868;2023-02-27T15:50:56;22.98;35.89
66962;HTU21D;53897;51.126;5.868;2023-02-27T15:53:24;22.98;35.85
66962;HTU21D;53897;51.126;5.868;2023-02-27T15:55:58;22.97;35.79
66962;HTU21D;53897;51.126;5.868;2023-02-27T15:58:28;22.95;35.76
66962;HTU21D;53897;51.126;5.868;2023-02-27T16:01:18;22.95;35.97
66962;HTU21D;53897;51.126;5.868;2023-02-27T16:03:47;22.95;35.87
66962;HTU21D;53897;51.126;5.868;2023-02-27T16:06:35;22.95;35.72
66962;HTU21D;53897;51.126;5.868;2023-02-27T16:09:23;22.94;35.64
66962;HTU21D;53897;51.126;5.868;2023-02-27T16:12:30;22.93;35.84
66962;HTU21D;53897;51.126;5.868;2023-02-27T16:15:25;22.91;35.87
66962;HTU21D;53897;51.126;5.868;2023-02-27T16:20:38;22.93;35.87
66962;HTU21D;53897;51.126;5.868;2023-02-27T16:23:23;22.94;35.95
66962;HTU21D;53897;51.126;5.868;2023-02-27T16:26:04;22.98;35.70
66962;HTU21D;53897;51.126;5.868;2023-02-27T16:28:43;22.97;35.47
66962;HTU21D;53897;51.126;5.868;2023-02-27T16:33:51;22.90;35.08
66962;HTU21D;53897;51.126;5.868;2023-02-27T16:36:23;22.87;35.13
66962;HTU21D;53897;51.126;5.868;2023-02-27T16:38:49;22.86;35.19
66962;HTU21D;53897;51.126;5.868;2023-02-27T16:41:17;22.83;35.27
66962;HTU21D;53897;51.126;5.868;2023-02-27T16:43:44;22.82;35.59
66962;HTU21D;53897;51.126;5.868;2023-02-27T16:46:12;22.80;36.18
66962;HTU21D;53897;51.126;5.868;2023-02-27T16:48:48;22.80;36.56
66962;HTU21D;53897;51.126;5.868;2023-02-27T16:51:17;22.79;36.80
66962;HTU21D;53897;51.126;5.868;2023-02-27T16:53:45;22.78;37.03
66962;HTU21D;53897;51.126;5.868;2023-02-27T16:56:12;22.80;37.11
66962;HTU21D;53897;51.126;5.868;2023-02-27T16:58:38;22.80;37.20
66962;HTU21D;53897;51.126;5.868;2023-02-27T17:01:04;22.79;37.23
66962;HTU21D;53897;51.126;5.868;2023-02-27T17:03:30;22.80;37.28
66962;HTU21D;53897;51.126;5.868;2023-02-27T17:05:56;22.81;37.22
66962;HTU21D;53897;51.126;5.868;2023-02-27T17:08:22;22.80;37.27
66962;HTU21D;53897;51.126;5.868;2023-02-27T17:10:48;22.81;37.31
66962;HTU21D;53897;51.126;5.868;2023-02-27T17:13:14;22.81;37.46
66962;HTU21D;53897;51.126;5.868;2023-02-27T17:15:40;22.79;37.57
66962;HTU21D;53897;51.126;5.868;2023-02-27T17:18:06;22.75;37.90
66962;HTU21D;53897;51.126;5.868;2023-02-27T17:20:31;22.69;38.19
66962;HTU21D;53897;51.126;5.868;2023-02-27T17:22:57;22.65;38.49
66962;HTU21D;53897;51.126;5.868;2023-02-27T17:25:23;22.63;38.59
66962;HTU21D;53897;51.126;5.868;2023-02-27T17:27:50;22.64;38.75
66962;HTU21D;53897;51.126;5.868;2023-02-27T17:30:15;22.66;38.62
66962;HTU21D;53897;51.126;5.868;2023-02-27T17:32:41;22.67;38.54
66962;HTU21D;53897;51.126;5.868;2023-02-27T17:35:07;22.66;38.73
66962;HTU21D;53897;51.126;5.868;2023-02-27T17:37:33;22.67;38.80
66962;HTU21D;53897;51.126;5.868;2023-02-27T17:39:59;22.70;38.87
66962;HTU21D;53897;51.126;5.868;2023-02-27T17:42:29;22.71;38.85
66962;HTU21D;53897;51.126;5.868;2023-02-27T17:44:54;22.72;38.82
66962;HTU21D;53897;51.126;5.868;2023-02-27T17:47:20;22.73;38.69
66962;HTU21D;53897;51.126;5.868;2023-02-27T17:49:46;22.73;38.65
66962;HTU21D;53897;51.126;5.868;2023-02-27T17:52:12;22.73;38.68
66962;HTU21D;53897;51.126;5.868;2023-02-27T17:54:37;22.75;38.69
66962;HTU21D;53897;51.126;5.868;2023-02-27T17:57:03;22.75;38.64
66962;HTU21D;53897;51.126;5.868;2023-02-27T17:59:31;22.76;38.59
66962;HTU21D;53897;51.126;5.868;2023-02-27T18:01:58;22.75;38.56
66962;HTU21D;53897;51.126;5.868;2023-02-27T18:04:24;22.77;38.58
66962;HTU21D;53897;51.126;5.868;2023-02-27T18:06:50;22.76;38.58
66962;HTU21D;53897;51.126;5.868;2023-02-27T18:09:16;22.77;38.53
66962;HTU21D;53897;51.126;5.868;2023-02-27T18:11:42;22.77;38.47
66962;HTU21D;53897;51.126;5.868;2023-02-27T18:14:08;22.78;38.40
66962;HTU21D;53897;51.126;5.868;2023-02-27T18:16:34;22.78;38.33
66962;HTU21D;53897;51.126;5.868;2023-02-27T18:19:04;22.79;38.33
66962;HTU21D;53897;51.126;5.868;2023-02-27T18:21:30;22.79;38.27
66962;HTU21D;53897;51.126;5.868;2023-02-27T18:23:56;22.78;38.27
66962;HTU21D;53897;51.126;5.868;2023-02-27T18:26:25;22.79;38.24
66962;HTU21D;53897;51.126;5.868;2023-02-27T18:28:51;22.79;38.22
66962;HTU21D;53897;51.126;5.868;2023-02-27T18:31:24;22.79;38.22
66962;HTU21D;53897;51.126;5.868;2023-02-27T18:33:51;22.79;38.21